Time;durP1;ratioP1;P1;durP2;ratioP2;P2;SDS_P1;SDS_P2;PMS_P1;PMS_P2;Temp;Humidity;BMP_temperature;BMP_pressure;BME280_temperature;BME280_humidity;BME280_pressure;Samples;Min_cycle;Max_cycle;Signal;HPM_P1;HPM_P2
2021/09/29 00:38:09;;;;;;;4.90;1.70;;;;;;;20.21;52.37;101526.00;4799481;24;20318;-82
2021/09/29 00:40:34;;;;;;;3.55;1.65;;;;;;;20.16;52.58;101519.06;4736157;30;20416;-88
2021/09/29 00:42:59;;;;;;;4.28;1.70;;;;;;;20.12;52.66;101523.44;4723633;30;20123;-88
2021/09/29 00:45:25;;;;;;;4.30;1.83;;;;;;;20.13;52.69;101517.34;4727852;30;20344;-88
2021/09/29 00:47:50;;;;;;;4.15;1.85;;;;;;;20.15;52.56;101505.16;4728552;30;20036;-88
2021/09/29 00:50:15;;;;;;;2.55;1.80;;;;;;;20.15;52.18;101505.16;4738187;30;20043;-88
2021/09/29 00:52:41;;;;;;;4.25;1.67;;;;;;;20.13;52.40;101496.44;4737514;30;20113;-88
2021/09/29 00:55:09;;;;;;;2.80;1.70;;;;;;;20.10;52.51;101497.34;4724124;30;20392;-87
2021/09/29 00:57:35;;;;;;;3.28;1.48;;;;;;;20.15;52.36;101486.84;4739516;30;20032;-87
2021/09/29 01:00:01;;;;;;;5.22;1.75;;;;;;;20.13;52.60;101491.22;4739328;30;20044;-88
2021/09/29 01:02:26;;;;;;;2.92;1.75;;;;;;;20.12;52.47;101484.25;4738810;30;20046;-88
2021/09/29 01:04:52;;;;;;;3.92;1.75;;;;;;;20.11;52.54;101482.53;4726417;30;20484;-88
2021/09/29 01:07:59;;;;;;;2.95;1.58;;;;;;;20.14;52.44;101474.66;4725321;30;20131;-88
2021/09/29 01:10:40;;;;;;;4.07;1.70;;;;;;;20.11;52.99;101469.47;4730130;30;20113;-88
2021/09/29 01:13:13;;;;;;;3.42;1.80;;;;;;;20.13;52.62;101473.78;4752980;30;20032;-88
2021/09/29 01:15:51;;;;;;;3.65;1.55;;;;;;;20.12;52.18;101460.72;4752948;30;20055;-87
2021/09/29 01:18:22;;;;;;;3.13;1.67;;;;;;;20.05;52.24;101451.25;4752449;30;20125;-88
2021/09/29 01:20:56;;;;;;;2.53;1.80;;;;;;;20.04;52.67;101453.00;4752065;30;20435;-88
2021/09/29 01:23:24;;;;;;;2.90;1.50;;;;;;;20.08;52.63;101453.84;4752090;30;20047;-87
2021/09/29 01:26:01;;;;;;;3.70;1.70;;;;;;;20.10;52.49;101445.09;4753553;30;20446;-88
2021/09/29 01:28:39;;;;;;;4.80;1.60;;;;;;;20.10;52.55;101446.84;4753354;30;20036;-88
2021/09/29 01:31:07;;;;;;;3.95;1.92;;;;;;;20.05;52.56;101441.66;4752291;30;20036;-87
2021/09/29 01:33:34;;;;;;;5.38;1.80;;;;;;;20.05;52.53;101435.56;4752011;30;20373;-87
2021/09/29 01:36:00;;;;;;;4.45;1.80;;;;;;;20.04;52.70;101431.22;4751963;30;20024;-88
2021/09/29 01:38:26;;;;;;;3.15;1.70;;;;;;;20.03;52.54;101432.94;4739161;30;20068;-87
2021/09/29 01:40:52;;;;;;;4.80;1.90;;;;;;;20.07;52.53;101436.41;4740243;30;20124;-87
2021/09/29 01:43:18;;;;;;;2.65;1.60;;;;;;;20.06;52.48;101426.84;4754935;30;20039;-87
2021/09/29 01:45:47;;;;;;;4.47;1.63;;;;;;;20.03;52.75;101427.72;4754893;30;20039;-87
2021/09/29 01:48:15;;;;;;;4.35;1.90;;;;;;;20.05;52.75;101418.13;4743385;30;20031;-88
2021/09/29 01:50:41;;;;;;;3.28;1.77;;;;;;;20.05;52.86;101412.91;4789053;30;20058;-87
2021/09/29 01:53:09;;;;;;;3.95;1.77;;;;;;;20.06;52.69;101405.97;4756447;30;20039;-87
2021/09/29 01:55:35;;;;;;;3.10;1.67;;;;;;;20.08;52.81;101402.44;4740470;30;20039;-87
2021/09/29 01:58:01;;;;;;;3.00;1.83;;;;;;;20.09;52.80;101404.16;4763969;30;20036;-85
2021/09/29 02:00:26;;;;;;;3.22;1.65;;;;;;;20.08;52.67;101397.22;4770022;30;20132;-84
2021/09/29 02:02:59;;;;;;;2.88;1.70;;;;;;;20.07;52.67;101398.09;4746877;30;20036;-87
2021/09/29 02:05:36;;;;;;;5.13;2.13;;;;;;;20.07;52.52;101392.84;4742110;30;20027;-86
2021/09/29 02:08:05;;;;;;;3.75;1.70;;;;;;;20.07;52.55;101384.16;4726732;30;20400;-85
2021/09/29 02:10:31;;;;;;;3.38;2.00;;;;;;;20.04;52.58;101376.38;4771033;30;20028;-87
2021/09/29 02:12:56;;;;;;;4.47;1.90;;;;;;;20.07;52.80;101369.34;4770588;30;20035;-87
2021/09/29 02:15:22;;;;;;;3.05;1.75;;;;;;;20.05;52.98;101362.41;4740082;30;20082;-85
2021/09/29 02:17:48;;;;;;;2.90;1.88;;;;;;;20.07;52.85;101365.88;4770386;30;20032;-86
2021/09/29 02:20:14;;;;;;;3.72;1.77;;;;;;;20.08;52.53;101357.16;4739414;30;20484;-84
2021/09/29 02:22:40;;;;;;;2.88;1.98;;;;;;;20.04;52.55;101358.94;4755078;30;20102;-85
2021/09/29 02:25:07;;;;;;;3.90;2.00;;;;;;;20.03;52.64;101356.34;4743328;30;20078;-85
2021/09/29 02:27:32;;;;;;;6.45;1.80;;;;;;;20.04;52.62;101355.47;4773707;30;20031;-85
2021/09/29 02:29:58;;;;;;;3.70;1.75;;;;;;;20.05;52.69;101351.97;4758181;30;20047;-85
2021/09/29 02:32:23;;;;;;;5.03;2.10;;;;;;;20.02;52.86;101349.41;4774113;30;20028;-86
2021/09/29 02:34:49;;;;;;;4.18;2.08;;;;;;;20.04;52.98;101352.84;4743026;30;20035;-87
2021/09/29 02:37:14;;;;;;;3.20;1.67;;;;;;;20.07;52.91;101347.59;4743242;30;20101;-86
2021/09/29 02:39:39;;;;;;;2.83;1.48;;;;;;;20.06;52.73;101354.56;4757487;30;20054;-85
2021/09/29 02:42:05;;;;;;;3.95;1.80;;;;;;;20.09;52.51;101351.03;4743298;30;20059;-83
2021/09/29 02:44:32;;;;;;;3.00;1.80;;;;;;;20.05;52.94;101349.34;4743076;30;20059;-85
2021/09/29 02:46:57;;;;;;;2.83;1.70;;;;;;;20.05;52.85;101344.97;4773558;30;20058;-86
2021/09/29 02:49:22;;;;;;;4.38;2.15;;;;;;;20.04;52.84;101340.66;4757624;30;20032;-86
2021/09/29 02:51:48;;;;;;;2.53;1.63;;;;;;;20.04;52.92;101332.81;4742929;30;20046;-86
2021/09/29 02:54:13;;;;;;;3.67;2.05;;;;;;;20.05;52.71;101331.91;4728028;30;20396;-86
2021/09/29 02:56:39;;;;;;;3.83;1.73;;;;;;;20.03;52.87;101330.22;4742393;30;20044;-86
2021/09/29 02:59:05;;;;;;;2.60;1.70;;;;;;;20.04;52.56;101324.97;4757292;30;20508;-87
2021/09/29 03:01:30;;;;;;;5.03;1.85;;;;;;;20.02;52.74;101324.13;4742972;30;20042;-83
2021/09/29 03:03:56;;;;;;;3.80;1.67;;;;;;;20.01;52.74;101327.63;4757149;30;20555;-86
2021/09/29 03:06:21;;;;;;;3.30;2.20;;;;;;;20.02;52.72;101328.50;4742755;30;20032;-84
2021/09/29 03:08:46;;;;;;;2.85;1.70;;;;;;;20.02;52.81;101326.75;4769228;30;20035;-85
2021/09/29 03:11:12;;;;;;;4.53;2.05;;;;;;;20.04;52.62;101319.75;4740531;30;20392;-86
2021/09/29 03:13:38;;;;;;;5.20;1.83;;;;;;;20.01;52.67;101324.13;4754206;30;20032;-86
2021/09/29 03:16:03;;;;;;;3.45;1.80;;;;;;;20.02;52.95;101321.50;4769020;30;20093;-85
2021/09/29 03:18:29;;;;;;;2.88;1.75;;;;;;;20.02;52.84;101318.91;4728065;30;20459;-82
2021/09/29 03:20:54;;;;;;;4.38;1.80;;;;;;;19.99;52.66;101312.84;4727720;30;20036;-84
2021/09/29 03:23:20;;;;;;;3.58;1.98;;;;;;;20.02;52.79;101316.28;4757002;30;20039;-82
2021/09/29 03:25:45;;;;;;;2.53;1.50;;;;;;;20.01;52.73;101309.34;4742520;30;20040;-84
2021/09/29 03:28:11;;;;;;;4.75;1.73;;;;;;;19.99;52.71;101310.22;4757034;30;20038;-85
2021/09/29 03:30:36;;;;;;;3.72;1.85;;;;;;;19.99;52.67;101299.78;4756911;30;20042;-85
2021/09/29 03:33:06;;;;;;;4.57;2.00;;;;;;;19.97;52.86;101304.16;4756745;30;20040;-86
2021/09/29 03:35:32;;;;;;;2.95;1.70;;;;;;;19.99;52.95;101302.38;4755582;30;20391;-85
2021/09/29 03:37:57;;;;;;;2.58;1.85;;;;;;;20.00;52.87;101293.69;4742117;30;20514;-87
2021/09/29 03:40:23;;;;;;;3.25;1.77;;;;;;;19.99;52.97;101297.16;4741843;30;20052;-86
2021/09/29 03:42:48;;;;;;;3.25;1.65;;;;;;;20.00;53.01;101291.06;4771767;30;20066;-86
2021/09/29 03:45:14;;;;;;;3.42;1.70;;;;;;;20.02;52.89;101291.91;4742042;30;20557;-84
2021/09/29 03:47:44;;;;;;;4.25;1.75;;;;;;;20.01;53.05;101290.19;4744730;30;20147;-83
2021/09/29 03:50:10;;;;;;;5.55;1.88;;;;;;;20.00;52.90;101288.47;4756176;30;20542;-84
2021/09/29 03:52:35;;;;;;;5.32;1.75;;;;;;;20.00;53.10;101288.47;4756298;30;20036;-87
2021/09/29 03:55:01;;;;;;;3.88;1.63;;;;;;;20.01;52.85;101285.84;4742056;30;20092;-86
2021/09/29 03:57:26;;;;;;;3.42;1.55;;;;;;;19.98;52.97;101288.47;4772252;30;20032;-86
2021/09/29 03:59:51;;;;;;;3.78;1.75;;;;;;;19.99;53.01;101285.00;4741794;30;20039;-82
2021/09/29 04:02:17;;;;;;;3.45;1.65;;;;;;;19.98;53.22;101280.63;4772128;30;20387;-85
2021/09/29 04:04:42;;;;;;;2.97;1.60;;;;;;;19.99;53.20;101284.09;4741752;30;20085;-82
2021/09/29 04:07:07;;;;;;;3.90;1.70;;;;;;;20.00;53.01;101281.47;4741618;30;20503;-82
2021/09/29 04:09:33;;;;;;;4.40;1.70;;;;;;;20.01;53.16;101278.00;4741538;30;20036;-86
2021/09/29 04:11:58;;;;;;;3.08;1.70;;;;;;;20.02;53.09;101273.63;4726870;30;20032;-83
2021/09/29 04:14:24;;;;;;;3.10;1.40;;;;;;;20.03;53.29;101270.13;4741672;30;20078;-86
2021/09/29 04:16:50;;;;;;;3.75;1.75;;;;;;;20.00;53.02;101263.19;4741715;30;20124;-85
2021/09/29 04:19:15;;;;;;;2.15;1.45;;;;;;;20.00;53.20;101265.81;4755790;30;20039;-86
2021/09/29 04:21:41;;;;;;;2.78;1.58;;;;;;;20.00;53.27;101263.19;4755764;30;20079;-82
2021/09/29 04:24:08;;;;;;;2.35;1.45;;;;;;;19.96;53.41;101256.28;4756293;30;20032;-82
2021/09/29 04:26:34;;;;;;;3.08;1.48;;;;;;;20.01;53.34;101248.38;4756404;30;20055;-81
2021/09/29 04:28:59;;;;;;;2.85;1.40;;;;;;;20.00;53.25;101252.75;4758972;30;20066;-84
2021/09/29 04:31:27;;;;;;;4.10;1.42;;;;;;;20.00;53.39;101259.72;4764620;30;20032;-84
2021/09/29 04:33:52;;;;;;;2.28;1.45;;;;;;;19.99;53.29;101248.41;4761981;30;20039;-84
2021/09/29 04:36:18;;;;;;;2.38;1.40;;;;;;;20.00;53.56;101257.97;4742027;30;20097;-86
2021/09/29 04:38:43;;;;;;;2.58;1.55;;;;;;;19.99;53.58;101253.66;4756634;30;20067;-82
2021/09/29 04:41:08;;;;;;;3.95;1.65;;;;;;;20.00;53.46;101255.34;4741884;30;20048;-84
2021/09/29 04:43:34;;;;;;;3.60;1.40;;;;;;;20.00;53.38;101250.13;4741504;30;20044;-85
2021/09/29 04:46:00;;;;;;;2.92;1.48;;;;;;;20.00;53.18;101251.88;4755848;30;20043;-84
2021/09/29 04:48:26;;;;;;;3.25;1.48;;;;;;;20.00;53.46;101246.66;4755548;30;20136;-86
2021/09/29 04:50:51;;;;;;;5.57;1.52;;;;;;;19.98;53.59;101253.66;4740822;30;20035;-86
2021/09/29 04:53:16;;;;;;;2.20;1.50;;;;;;;19.97;53.72;101249.31;4755963;30;20036;-85
2021/09/29 04:55:42;;;;;;;2.92;1.30;;;;;;;19.94;53.50;101248.44;4740542;30;20035;-86
2021/09/29 04:58:10;;;;;;;2.65;1.35;;;;;;;19.98;53.59;101249.28;4726958;30;20047;-84
2021/09/29 05:00:36;;;;;;;3.15;1.30;;;;;;;20.00;53.59;101242.28;4755353;30;20024;-85
2021/09/29 05:03:02;;;;;;;2.83;1.40;;;;;;;19.96;53.73;101242.34;4754925;30;20051;-88
2021/09/29 05:05:28;;;;;;;4.32;1.42;;;;;;;20.01;53.57;101246.66;4755102;30;20047;-89
2021/09/29 05:07:57;;;;;;;4.00;1.85;;;;;;;20.04;53.74;101245.75;4755013;30;20031;-88
2021/09/29 05:10:34;;;;;;;3.17;1.80;;;;;;;20.05;53.67;101242.22;4755343;30;20031;-87
2021/09/29 05:13:02;;;;;;;3.40;1.77;;;;;;;20.04;53.67;101233.53;4755198;30;20118;-85
2021/09/29 05:15:27;;;;;;;5.18;2.53;;;;;;;20.06;53.77;101237.00;4754912;30;20028;-84
2021/09/29 05:17:53;;;;;;;4.90;2.30;;;;;;;20.12;53.62;101241.25;4740075;30;20110;-80
2021/09/29 05:20:18;;;;;;;10.63;3.72;;;;;;;20.14;53.74;101234.25;4740164;30;20077;-80
2021/09/29 05:22:43;;;;;;;9.95;4.07;;;;;;;20.14;53.71;101236.88;4742167;30;20048;-82
2021/09/29 05:25:09;;;;;;;9.25;3.70;;;;;;;20.14;53.68;101232.53;4742025;30;20031;-83
2021/09/29 05:27:35;;;;;;;8.82;3.83;;;;;;;20.21;53.79;101232.41;4772048;30;20032;-90
2021/09/29 05:30:00;;;;;;;8.23;3.58;;;;;;;20.32;53.32;101233.16;4741398;30;20092;-91
2021/09/29 05:32:25;;;;;;;4.60;2.67;;;;;;;20.35;53.42;101233.09;4742340;30;20039;-90
2021/09/29 05:34:51;;;;;;;5.97;3.00;;;;;;;20.30;53.61;101227.09;4740806;30;20134;-88
2021/09/29 05:37:18;;;;;;;7.55;2.70;;;;;;;20.26;53.56;101234.09;4775666;30;20040;-87
2021/09/29 05:39:43;;;;;;;6.07;2.78;;;;;;;20.23;53.81;101234.16;4758418;30;20052;-85
2021/09/29 05:42:09;;;;;;;6.30;2.72;;;;;;;20.20;53.69;101231.56;4771355;30;20032;-84
2021/09/29 05:44:36;;;;;;;9.95;3.00;;;;;;;20.17;53.27;101231.63;4755039;30;20127;-85
2021/09/29 05:47:02;;;;;;;7.53;2.83;;;;;;;20.10;52.94;101228.22;4740833;30;20043;-85
2021/09/29 05:49:27;;;;;;;8.95;2.97;;;;;;;20.08;53.20;101227.38;4740655;30;20032;-85
2021/09/29 05:51:53;;;;;;;6.90;2.75;;;;;;;20.06;52.92;101229.16;4755193;30;20039;-87
2021/09/29 05:54:18;;;;;;;7.30;2.65;;;;;;;20.05;52.71;101229.16;4740412;30;20035;-86
2021/09/29 05:56:44;;;;;;;7.13;3.03;;;;;;;20.02;52.78;101231.84;4754739;30;20085;-87
2021/09/29 05:59:10;;;;;;;7.57;2.40;;;;;;;20.01;52.22;101230.09;4754831;30;20067;-88
2021/09/29 06:01:35;;;;;;;6.95;2.80;;;;;;;19.99;52.44;101227.53;4755510;30;20046;-88
2021/09/29 06:04:00;;;;;;;6.05;2.40;;;;;;;19.99;52.64;101229.25;4740362;30;20040;-87
2021/09/29 06:06:26;;;;;;;5.57;2.42;;;;;;;19.97;52.28;101226.69;4725982;30;20123;-84
2021/09/29 06:08:51;;;;;;;6.20;2.40;;;;;;;19.99;52.47;101229.25;4740679;30;20482;-86
2021/09/29 06:11:16;;;;;;;5.45;2.30;;;;;;;19.97;52.13;101237.13;4755069;30;20040;-85
2021/09/29 06:13:42;;;;;;;7.95;2.60;;;;;;;19.96;51.79;101231.91;4755110;30;20085;-86
2021/09/29 06:16:08;;;;;;;5.50;2.22;;;;;;;19.94;51.55;101238.00;4740828;30;20388;-87
2021/09/29 06:18:39;;;;;;;8.30;2.58;;;;;;;19.90;51.67;101233.72;4755750;30;20035;-85
2021/09/29 06:21:06;;;;;;;7.32;2.40;;;;;;;19.93;52.08;101240.66;4756335;30;20071;-86
2021/09/29 06:23:32;;;;;;;4.88;1.90;;;;;;;19.92;51.96;101239.81;4771705;30;20155;-85
2021/09/29 06:25:57;;;;;;;8.20;2.20;;;;;;;19.96;51.49;101234.53;4741268;30;20051;-88
2021/09/29 06:28:22;;;;;;;4.53;1.95;;;;;;;19.98;51.83;101237.97;4755667;30;20040;-88
2021/09/29 06:30:48;;;;;;;6.07;2.13;;;;;;;19.99;52.04;101234.47;4755969;30;20039;-88
2021/09/29 06:33:15;;;;;;;4.20;1.95;;;;;;;20.00;52.14;101225.75;4726351;30;20562;-88
2021/09/29 06:35:40;;;;;;;6.25;2.15;;;;;;;20.00;52.05;101231.84;4755651;30;20092;-88
2021/09/29 06:38:07;;;;;;;4.28;1.70;;;;;;;19.99;51.83;101224.91;4740548;30;20036;-87
2021/09/29 06:40:33;;;;;;;4.22;1.88;;;;;;;20.00;52.00;101233.59;4755272;30;20062;-88
2021/09/29 06:43:03;;;;;;;5.72;2.47;;;;;;;19.99;52.08;101242.31;4755700;30;20039;-88
2021/09/29 06:45:28;;;;;;;5.18;1.90;;;;;;;20.00;51.89;101246.66;4740651;30;20268;-88
2021/09/29 06:47:54;;;;;;;5.70;2.20;;;;;;;20.00;52.15;101254.50;4756434;30;20077;-86
2021/09/29 06:50:19;;;;;;;5.32;1.98;;;;;;;19.99;52.26;101265.81;4747233;30;20034;-87
2021/09/29 06:52:45;;;;;;;5.93;2.00;;;;;;;20.05;52.15;101284.03;4766428;30;20038;-87
2021/09/29 06:55:10;;;;;;;7.38;2.10;;;;;;;20.07;51.98;101301.41;4745545;30;20042;-88
2021/09/29 06:57:36;;;;;;;5.82;2.20;;;;;;;20.10;52.12;101305.75;4761582;30;20097;-87
2021/09/29 07:00:07;;;;;;;5.78;1.95;;;;;;;20.08;51.84;101299.69;4747640;30;20036;-87
2021/09/29 07:02:33;;;;;;;5.32;1.70;;;;;;;20.10;52.20;101301.41;4751000;30;20063;-87
2021/09/29 07:04:59;;;;;;;5.60;2.10;;;;;;;20.10;52.37;101301.41;4765357;30;20032;-90
2021/09/29 07:07:25;;;;;;;4.82;1.90;;;;;;;20.10;51.87;101296.16;4751096;30;20040;-91
2021/09/29 07:09:50;;;;;;;5.60;2.17;;;;;;;20.08;52.07;101297.06;4768924;30;20059;-91
2021/09/29 07:12:16;;;;;;;3.28;1.70;;;;;;;20.08;52.20;101281.41;4757569;30;20032;-92
2021/09/29 07:14:41;;;;;;;4.30;1.92;;;;;;;20.03;52.20;101257.06;4757708;30;20059;-90
2021/09/29 07:17:07;;;;;;;3.70;1.88;;;;;;;20.02;52.25;101243.16;4774578;30;20016;-91
2021/09/29 07:19:32;;;;;;;6.10;1.67;;;;;;;20.02;52.39;101239.69;4762256;30;20032;-91
2021/09/29 07:21:58;;;;;;;4.30;2.15;;;;;;;20.06;52.56;101262.25;4762590;30;20111;-89
2021/09/29 07:24:23;;;;;;;5.38;1.90;;;;;;;20.02;52.36;101277.09;4757638;30;20047;-90
2021/09/29 07:26:49;;;;;;;4.55;1.70;;;;;;;20.07;52.50;101295.34;4743511;30;20542;-90
2021/09/29 07:29:14;;;;;;;5.97;1.85;;;;;;;20.12;52.42;101306.56;4776585;30;20022;-90
2021/09/29 07:31:40;;;;;;;4.55;1.48;;;;;;;20.10;52.47;101298.78;4765388;30;20099;-91
2021/09/29 07:34:07;;;;;;;3.72;1.70;;;;;;;20.10;52.32;101297.91;4764408;30;20036;-93
2021/09/29 07:36:38;;;;;;;5.82;2.00;;;;;;;20.05;52.59;101297.94;4778151;30;20046;-92
2021/09/29 07:39:04;;;;;;;4.90;1.80;;;;;;;20.07;52.65;101292.72;4765490;30;20064;-92
2021/09/29 07:41:30;;;;;;;4.55;1.83;;;;;;;20.10;52.93;101300.53;4779705;30;20023;-93
2021/09/29 07:43:56;;;;;;;4.03;1.77;;;;;;;20.11;52.33;101297.88;4795271;29;20032;-93
2021/09/29 07:46:21;;;;;;;3.08;1.70;;;;;;;20.08;52.80;101297.06;4779207;30;20055;-91
2021/09/29 07:48:47;;;;;;;4.82;1.50;;;;;;;20.07;52.70;101303.16;4779791;30;20016;-94
2021/09/29 07:51:15;;;;;;;4.85;1.60;;;;;;;20.04;53.02;101296.25;4764377;30;20040;-91
2021/09/29 07:53:41;;;;;;;3.33;1.60;;;;;;;20.03;52.93;101302.31;4764678;30;20111;-92
2021/09/29 07:56:08;;;;;;;4.60;1.75;;;;;;;20.03;53.13;101293.63;4778017;30;20035;-91
2021/09/29 07:58:34;;;;;;;4.53;1.52;;;;;;;20.05;53.02;101286.66;4778328;30;20036;-92
2021/09/29 08:01:00;;;;;;;7.00;1.70;;;;;;;20.06;52.79;101291.00;4790718;30;20051;-92
2021/09/29 08:03:26;;;;;;;5.57;1.50;;;;;;;20.07;52.65;101297.94;4751646;30;20036;-91
2021/09/29 08:05:53;;;;;;;3.55;1.60;;;;;;;20.08;52.96;101303.16;4767300;30;20041;-91
2021/09/29 08:08:19;;;;;;;4.20;1.80;;;;;;;20.09;52.70;101317.94;4751611;30;20043;-92
2021/09/29 08:10:45;;;;;;;5.10;1.67;;;;;;;20.10;52.74;101311.84;4758299;30;20044;-90
2021/09/29 08:13:10;;;;;;;2.95;1.27;;;;;;;20.13;52.86;101318.78;4744566;30;20449;-89
2021/09/29 08:15:35;;;;;;;4.93;1.75;;;;;;;20.10;52.86;101324.91;4755208;30;20031;-90
2021/09/29 08:18:01;;;;;;;3.17;1.38;;;;;;;20.02;53.38;101320.66;4741310;30;20112;-91
2021/09/29 08:20:28;;;;;;;3.63;1.60;;;;;;;20.06;53.25;101306.69;4766842;30;20107;-90
2021/09/29 08:23:03;;;;;;;4.28;1.20;;;;;;;20.08;53.07;101313.59;4769863;30;20095;-88
2021/09/29 08:25:46;;;;;;;3.15;1.40;;;;;;;20.08;53.06;101302.31;4771821;30;20050;-93
2021/09/29 08:33:18;;;;;;;3.08;1.52;;;;;;;20.07;53.27;101303.16;4772356;30;20416;-92
2021/09/29 08:35:57;;;;;;;2.70;1.30;;;;;;;20.05;53.17;101295.34;4743546;30;20028;-92
2021/09/29 08:38:38;;;;;;;4.05;1.40;;;;;;;20.09;53.38;101296.19;4733539;30;20036;-93
2021/09/29 08:43:57;;;;;;;3.05;1.30;;;;;;;20.10;53.25;101306.63;4768933;30;20387;-91
2021/09/29 08:46:31;;;;;;;3.72;1.60;;;;;;;20.14;53.16;101308.31;4763066;30;20459;-90
2021/09/29 09:16:35;;;;;;;2.20;1.00;;;;;;;20.13;53.44;101335.31;4793253;30;20035;-89
2021/09/29 09:19:05;;;;;;;2.03;1.10;;;;;;;20.15;53.48;101332.69;4776126;30;20052;-92
2021/09/29 09:21:32;;;;;;;2.65;1.05;;;;;;;20.14;53.37;101337.06;4763654;30;20035;-91
2021/09/29 09:23:58;;;;;;;3.35;1.00;;;;;;;20.17;53.44;101344.00;4760124;30;20032;-90
2021/09/29 09:26:27;;;;;;;3.15;0.95;;;;;;;20.17;53.61;101349.22;4768283;30;20036;-91
2021/09/29 09:29:10;;;;;;;3.58;1.10;;;;;;;20.19;53.70;101359.66;4790134;30;20023;-92
2021/09/29 09:31:37;;;;;;;2.95;1.20;;;;;;;20.19;53.54;101352.66;4776716;30;20022;-90
2021/09/29 09:34:06;;;;;;;3.20;1.10;;;;;;;20.15;53.59;101364.03;4793754;29;20035;-91
2021/09/29 09:36:39;;;;;;;2.05;1.00;;;;;;;20.18;53.53;101373.59;4776666;30;20039;-89
2021/09/29 09:39:12;;;;;;;2.20;1.10;;;;;;;20.16;53.51;101381.44;4769459;30;20085;-92
2021/09/29 09:41:44;;;;;;;3.17;1.17;;;;;;;20.18;53.55;101384.03;4774213;30;20036;-91
2021/09/29 09:44:09;;;;;;;2.65;1.10;;;;;;;20.13;53.54;101373.66;4750435;30;20066;-92
2021/09/29 09:46:35;;;;;;;1.92;1.10;;;;;;;20.12;53.26;101385.84;4748781;30;20039;-88
2021/09/29 09:49:03;;;;;;;2.47;1.13;;;;;;;20.14;53.21;101388.41;4731503;30;20035;-89
2021/09/29 09:51:30;;;;;;;2.25;1.05;;;;;;;20.15;53.63;101382.34;4759865;30;20028;-90
2021/09/29 09:53:57;;;;;;;3.25;1.00;;;;;;;20.13;53.53;101386.72;4764064;30;20024;-90
2021/09/29 09:56:25;;;;;;;2.58;0.90;;;;;;;20.14;53.64;101370.13;4770211;30;20031;-88
2021/09/29 09:58:56;;;;;;;2.17;1.00;;;;;;;20.11;53.61;101375.41;4759942;30;20035;-90
2021/09/29 10:01:23;;;;;;;2.63;0.82;;;;;;;20.08;53.52;101381.53;4759472;30;20107;-89
2021/09/29 10:03:50;;;;;;;2.38;1.20;;;;;;;20.09;53.57;101398.94;4760391;30;20032;-89
2021/09/29 10:06:17;;;;;;;2.38;1.00;;;;;;;20.07;53.59;101403.31;4774651;30;20095;-88
2021/09/29 10:08:49;;;;;;;3.97;1.15;;;;;;;20.08;53.68;101405.06;4760015;30;20040;-88
2021/09/29 10:11:24;;;;;;;3.25;1.05;;;;;;;20.12;53.60;101408.47;4743578;30;20070;-89
2021/09/29 10:27:53;;;;;;;1.10;0.70;;;;;;;20.06;53.64;101419.88;4782424;30;20051;-91
2021/09/29 10:30:30;;;;;;;2.60;0.80;;;;;;;20.05;53.82;101425.13;4783505;30;20032;-90
2021/09/29 10:32:59;;;;;;;1.23;0.75;;;;;;;20.06;54.08;101434.69;4758731;30;20067;-91
2021/09/29 10:35:34;;;;;;;2.13;1.00;;;;;;;20.07;53.73;101439.88;4757488;30;20073;-91
2021/09/29 10:46:25;;;;;;;2.05;0.73;;;;;;;20.08;53.77;101439.03;4756691;30;20032;-92
2021/09/29 10:49:35;;;;;;;2.28;0.80;;;;;;;20.10;53.71;101445.09;4756572;30;20027;-90
2021/09/29 11:11:08;;;;;;;1.65;0.75;;;;;;;20.32;53.32;101452.72;4757122;30;20085;-91
2021/09/29 11:27:47;;;;;;;2.42;0.98;;;;;;;20.38;53.19;101472.66;4755489;30;20127;-93
2021/09/29 11:30:24;;;;;;;2.55;1.08;;;;;;;20.42;53.15;101469.13;4755301;30;20028;-92
2021/09/29 11:33:04;;;;;;;3.65;1.00;;;;;;;20.41;53.21;101470.91;4741074;30;20059;-93
2021/09/29 12:11:16;;;;;;;2.08;1.00;;;;;;;20.54;53.30;101503.00;4762259;30;20452;-91
2021/09/29 12:13:46;;;;;;;2.13;1.00;;;;;;;20.50;53.27;101530.91;4756886;30;20435;-90
2021/09/29 12:16:26;;;;;;;4.45;1.10;;;;;;;20.41;53.03;101540.63;4755003;30;20081;-91
2021/09/29 12:19:41;;;;;;;3.08;1.15;;;;;;;20.32;53.23;101547.66;4755119;30;20032;-91
2021/09/29 12:22:17;;;;;;;3.67;1.02;;;;;;;20.33;53.32;101543.28;4755117;30;20121;-91
2021/09/29 12:24:47;;;;;;;3.22;1.00;;;;;;;20.31;53.15;101545.91;4754230;30;20040;-92
2021/09/29 12:27:39;;;;;;;2.83;1.10;;;;;;;20.35;53.64;101547.63;4725603;30;20075;-91
2021/09/29 12:30:22;;;;;;;3.00;0.70;;;;;;;20.33;53.32;101570.28;4754056;30;20089;-90
2021/09/29 12:35:51;;;;;;;3.92;1.08;;;;;;;20.28;53.21;101574.72;4754182;30;20044;-90
2021/09/29 12:38:18;;;;;;;2.58;0.88;;;;;;;20.28;53.32;101573.84;4739692;30;20038;-91
2021/09/29 12:40:45;;;;;;;2.22;0.80;;;;;;;20.23;53.22;101566.06;4756488;30;20032;-92
2021/09/29 12:43:17;;;;;;;3.97;1.10;;;;;;;20.22;53.23;101571.28;4741705;30;20047;-91
2021/09/29 12:45:47;;;;;;;3.33;1.00;;;;;;;20.16;53.22;101556.50;4741630;30;20106;-91
2021/09/29 12:48:14;;;;;;;2.17;0.93;;;;;;;20.22;53.29;101551.22;4756219;30;20112;-91
2021/09/29 12:56:04;;;;;;;4.38;1.05;;;;;;;20.39;53.13;101573.75;4747673;30;20051;-91
2021/09/29 12:58:30;;;;;;;3.25;0.98;;;;;;;20.45;53.15;101584.16;4756695;30;20034;-91
2021/09/29 13:00:57;;;;;;;2.97;0.80;;;;;;;20.49;53.19;101577.97;4756212;30;20115;-92
2021/09/29 13:03:23;;;;;;;1.90;0.80;;;;;;;20.53;53.02;101587.53;4741305;30;20031;-90
2021/09/29 13:05:48;;;;;;;2.88;1.00;;;;;;;20.57;53.18;101598.84;4741730;30;20058;-92
2021/09/29 13:08:15;;;;;;;2.85;0.85;;;;;;;20.62;52.92;101595.34;4755589;30;20493;-91
2021/09/29 13:10:41;;;;;;;3.75;0.90;;;;;;;20.67;53.34;101614.47;4755894;30;20023;-91
2021/09/29 13:13:07;;;;;;;2.25;0.90;;;;;;;20.71;53.14;101610.94;4772089;30;20121;-91
2021/09/29 13:15:39;;;;;;;2.28;0.90;;;;;;;20.74;52.74;101608.28;4755740;30;20034;-89
2021/09/29 13:18:04;;;;;;;2.17;0.77;;;;;;;20.74;53.29;101616.13;4741987;30;20085;-91
2021/09/29 13:20:31;;;;;;;1.83;0.75;;;;;;;20.70;52.61;101614.41;4726720;30;20035;-91
2021/09/29 13:23:25;;;;;;;2.38;0.90;;;;;;;20.69;53.13;101619.69;4726724;30;20514;-92
2021/09/29 13:37:02;;;;;;;3.05;0.90;;;;;;;20.52;52.91;101653.81;4771281;30;20030;-87
2021/09/29 13:39:27;;;;;;;1.98;0.63;;;;;;;20.45;53.21;101654.75;4770943;30;20079;-87
2021/09/29 13:41:53;;;;;;;3.55;0.90;;;;;;;20.40;53.25;101659.13;4755028;30;20074;-87
2021/09/29 13:44:20;;;;;;;1.40;0.70;;;;;;;20.39;53.26;101675.69;4726099;30;20039;-87
2021/09/29 13:46:46;;;;;;;3.63;0.90;;;;;;;20.37;53.22;101675.69;4740245;30;20448;-87
2021/09/29 13:49:13;;;;;;;2.53;0.82;;;;;;;20.35;53.30;101669.63;4755109;30;20074;-88
2021/09/29 13:51:41;;;;;;;2.00;0.80;;;;;;;20.32;53.41;101665.28;4751946;30;20077;-86
2021/09/29 13:54:23;;;;;;;2.65;0.90;;;;;;;20.33;53.22;101674.84;4752047;30;20398;-87
2021/09/29 13:57:11;;;;;;;2.13;0.82;;;;;;;20.35;53.39;101686.16;4751739;30;20152;-87
2021/09/29 14:31:46;;;;;;;2.88;0.93;;;;;;;20.39;52.97;101721.00;4770773;30;20031;-88
2021/09/29 14:34:12;;;;;;;3.22;0.85;;;;;;;20.33;52.87;101729.75;4754550;30;20502;-88
2021/09/29 14:36:37;;;;;;;2.40;0.90;;;;;;;20.29;52.72;101728.03;4754730;30;20032;-88
2021/09/29 14:39:04;;;;;;;2.88;0.80;;;;;;;20.28;52.99;101734.16;4757955;30;20060;-88
2021/09/29 14:41:30;;;;;;;2.97;0.73;;;;;;;20.31;53.23;101728.03;4762299;30;20054;-89
2021/09/29 14:43:55;;;;;;;1.98;0.80;;;;;;;20.32;53.10;101735.00;4762388;30;20059;-90
2021/09/29 14:46:21;;;;;;;3.53;0.90;;;;;;;20.35;53.14;101730.59;4732327;30;20051;-90
2021/09/29 14:48:46;;;;;;;6.07;1.02;;;;;;;20.29;52.89;101733.25;4744292;30;20092;-90
2021/09/29 14:51:12;;;;;;;3.22;0.80;;;;;;;20.26;52.55;101735.03;4727196;30;20392;-88
2021/09/29 14:53:39;;;;;;;5.20;1.00;;;;;;;20.30;53.18;101735.00;4756147;30;20031;-91
2021/09/29 14:56:06;;;;;;;6.88;0.95;;;;;;;20.34;53.07;101743.72;4754768;30;20039;-91
2021/09/29 14:58:32;;;;;;;3.10;0.95;;;;;;;20.38;53.11;101740.16;4754821;30;20107;-91
2021/09/29 15:00:58;;;;;;;5.22;0.90;;;;;;;20.39;53.11;101749.75;4754967;30;20480;-90
2021/09/29 15:03:24;;;;;;;2.47;0.90;;;;;;;20.42;52.83;101749.72;4755009;30;20165;-91